sensor_id;sensor_type;location;lat;lon;timestamp;temperature;humidity
68257;DHT22;55069;51.568;4.656;2024-02-21T00:00:04;9.43;93.41
68257;DHT22;55069;51.568;4.656;2024-02-21T00:02:30;9.48;93.29
68257;DHT22;55069;51.568;4.656;2024-02-21T00:04:56;9.42;93.06
68257;DHT22;55069;51.568;4.656;2024-02-21T00:07:21;9.38;93.33
68257;DHT22;55069;51.568;4.656;2024-02-21T00:09:47;9.31;93.69
68257;DHT22;55069;51.568;4.656;2024-02-21T00:12:12;9.22;93.60
68257;DHT22;55069;51.568;4.656;2024-02-21T00:14:41;9.21;93.39
68257;DHT22;55069;51.568;4.656;2024-02-21T00:17:06;9.14;93.60
68257;DHT22;55069;51.568;4.656;2024-02-21T00:19:34;9.07;93.87
68257;DHT22;55069;51.568;4.656;2024-02-21T00:21:59;9.03;94.00
68257;DHT22;55069;51.568;4.656;2024-02-21T00:24:25;8.97;94.07
68257;DHT22;55069;51.568;4.656;2024-02-21T00:26:50;8.91;94.11
68257;DHT22;55069;51.568;4.656;2024-02-21T00:29:15;8.85;94.53
68257;DHT22;55069;51.568;4.656;2024-02-21T00:31:41;8.85;94.45
68257;DHT22;55069;51.568;4.656;2024-02-21T00:34:07;8.85;94.40
68257;DHT22;55069;51.568;4.656;2024-02-21T00:36:32;8.85;94.50
68257;DHT22;55069;51.568;4.656;2024-02-21T00:38:58;8.88;94.04
68257;DHT22;55069;51.568;4.656;2024-02-21T00:41:23;8.91;93.97
68257;DHT22;55069;51.568;4.656;2024-02-21T00:43:49;8.97;93.51
68257;DHT22;55069;51.568;4.656;2024-02-21T00:46:15;9.07;93.17
68257;DHT22;55069;51.568;4.656;2024-02-21T00:48:41;9.07;92.88
68257;DHT22;55069;51.568;4.656;2024-02-21T00:51:06;9.11;92.68
68257;DHT22;55069;51.568;4.656;2024-02-21T00:53:32;9.14;92.50
68257;DHT22;55069;51.568;4.656;2024-02-21T00:55:57;9.19;91.88
68257;DHT22;55069;51.568;4.656;2024-02-21T00:58:23;9.18;92.07
68257;DHT22;55069;51.568;4.656;2024-02-21T01:00:49;9.22;91.88
68257;DHT22;55069;51.568;4.656;2024-02-21T01:03:14;9.21;92.12
68257;DHT22;55069;51.568;4.656;2024-02-21T01:05:40;9.24;91.97
68257;DHT22;55069;51.568;4.656;2024-02-21T01:08:05;9.25;92.14
68257;DHT22;55069;51.568;4.656;2024-02-21T01:10:31;9.34;91.78
68257;DHT22;55069;51.568;4.656;2024-02-21T01:12:56;9.29;91.85
68257;DHT22;55069;51.568;4.656;2024-02-21T01:15:22;9.21;92.20
68257;DHT22;55069;51.568;4.656;2024-02-21T01:17:47;9.12;92.32
68257;DHT22;55069;51.568;4.656;2024-02-21T01:20:15;9.05;92.70
68257;DHT22;55069;51.568;4.656;2024-02-21T01:22:40;9.01;92.70
68257;DHT22;55069;51.568;4.656;2024-02-21T01:25:06;9.03;92.87
68257;DHT22;55069;51.568;4.656;2024-02-21T01:27:32;8.98;92.77
68257;DHT22;55069;51.568;4.656;2024-02-21T01:29:57;9.05;92.96
68257;DHT22;55069;51.568;4.656;2024-02-21T01:32:23;9.11;92.72
68257;DHT22;55069;51.568;4.656;2024-02-21T01:34:50;9.14;92.42
68257;DHT22;55069;51.568;4.656;2024-02-21T01:37:15;9.15;92.78
68257;DHT22;55069;51.568;4.656;2024-02-21T01:39:41;9.17;92.26
68257;DHT22;55069;51.568;4.656;2024-02-21T01:42:06;9.21;92.40
68257;DHT22;55069;51.568;4.656;2024-02-21T01:44:32;9.25;92.28
68257;DHT22;55069;51.568;4.656;2024-02-21T01:46:58;9.24;92.54
68257;DHT22;55069;51.568;4.656;2024-02-21T01:49:24;9.21;92.18
68257;DHT22;55069;51.568;4.656;2024-02-21T01:51:49;9.21;92.24
68257;DHT22;55069;51.568;4.656;2024-02-21T01:54:17;9.21;92.54
68257;DHT22;55069;51.568;4.656;2024-02-21T01:56:43;9.14;92.29
68257;DHT22;55069;51.568;4.656;2024-02-21T01:59:10;9.18;92.56
68257;DHT22;55069;51.568;4.656;2024-02-21T02:01:37;9.22;92.73
68257;DHT22;55069;51.568;4.656;2024-02-21T02:04:02;9.22;92.45
68257;DHT22;55069;51.568;4.656;2024-02-21T02:06:30;9.14;92.62
68257;DHT22;55069;51.568;4.656;2024-02-21T02:08:56;9.12;93.10
68257;DHT22;55069;51.568;4.656;2024-02-21T02:11:22;9.08;92.91
68257;DHT22;55069;51.568;4.656;2024-02-21T02:13:48;9.01;93.06
68257;DHT22;55069;51.568;4.656;2024-02-21T02:16:13;9.07;93.00
68257;DHT22;55069;51.568;4.656;2024-02-21T02:18:39;9.05;93.37
68257;DHT22;55069;51.568;4.656;2024-02-21T02:21:10;9.08;93.32
68257;DHT22;55069;51.568;4.656;2024-02-21T02:23:36;9.11;93.04
68257;DHT22;55069;51.568;4.656;2024-02-21T02:26:01;9.10;93.31
68257;DHT22;55069;51.568;4.656;2024-02-21T02:28:27;9.14;93.25
68257;DHT22;55069;51.568;4.656;2024-02-21T02:30:52;9.17;93.14
68257;DHT22;55069;51.568;4.656;2024-02-21T02:33:18;9.17;93.03
68257;DHT22;55069;51.568;4.656;2024-02-21T02:35:44;9.19;93.15
68257;DHT22;55069;51.568;4.656;2024-02-21T02:38:09;9.24;93.00
68257;DHT22;55069;51.568;4.656;2024-02-21T02:40:38;9.22;92.86
68257;DHT22;55069;51.568;4.656;2024-02-21T02:43:03;9.24;92.99
68257;DHT22;55069;51.568;4.656;2024-02-21T02:45:29;9.19;92.88
68257;DHT22;55069;51.568;4.656;2024-02-21T02:47:56;9.22;93.05
68257;DHT22;55069;51.568;4.656;2024-02-21T02:50:23;9.22;93.26
68257;DHT22;55069;51.568;4.656;2024-02-21T02:52:48;9.21;93.36
68257;DHT22;55069;51.568;4.656;2024-02-21T02:55:14;9.25;93.21
68257;DHT22;55069;51.568;4.656;2024-02-21T02:57:40;9.28;93.26
68257;DHT22;55069;51.568;4.656;2024-02-21T03:00:08;9.28;93.35
68257;DHT22;55069;51.568;4.656;2024-02-21T03:02:35;9.24;93.53
68257;DHT22;55069;51.568;4.656;2024-02-21T03:05:00;9.24;93.42
68257;DHT22;55069;51.568;4.656;2024-02-21T03:07:26;9.22;93.36
68257;DHT22;55069;51.568;4.656;2024-02-21T03:09:51;9.17;93.59
68257;DHT22;55069;51.568;4.656;2024-02-21T03:12:18;9.21;93.59
68257;DHT22;55069;51.568;4.656;2024-02-21T03:14:52;9.21;93.63
68257;DHT22;55069;51.568;4.656;2024-02-21T03:17:18;9.18;93.69
68257;DHT22;55069;51.568;4.656;2024-02-21T03:19:43;9.12;93.96
68257;DHT22;55069;51.568;4.656;2024-02-21T03:22:08;9.15;94.22
68257;DHT22;55069;51.568;4.656;2024-02-21T03:24:34;9.07;94.46
68257;DHT22;55069;51.568;4.656;2024-02-21T03:26:59;9.07;94.36
68257;DHT22;55069;51.568;4.656;2024-02-21T03:29:25;9.04;94.45
68257;DHT22;55069;51.568;4.656;2024-02-21T03:31:51;8.91;94.68
68257;DHT22;55069;51.568;4.656;2024-02-21T03:34:16;8.92;94.82
68257;DHT22;55069;51.568;4.656;2024-02-21T03:36:42;8.88;94.94
68257;DHT22;55069;51.568;4.656;2024-02-21T03:39:07;8.81;95.15
68257;DHT22;55069;51.568;4.656;2024-02-21T03:41:34;8.79;95.16
68257;DHT22;55069;51.568;4.656;2024-02-21T03:44:00;8.79;95.34
68257;DHT22;55069;51.568;4.656;2024-02-21T03:46:27;8.77;95.47
68257;DHT22;55069;51.568;4.656;2024-02-21T03:48:52;8.79;95.38
68257;DHT22;55069;51.568;4.656;2024-02-21T03:51:18;8.87;95.27
68257;DHT22;55069;51.568;4.656;2024-02-21T03:53:43;8.88;94.98
68257;DHT22;55069;51.568;4.656;2024-02-21T03:56:09;8.91;95.11
68257;DHT22;55069;51.568;4.656;2024-02-21T03:58:34;8.94;94.94
68257;DHT22;55069;51.568;4.656;2024-02-21T04:01:01;8.91;94.97
68257;DHT22;55069;51.568;4.656;2024-02-21T04:03:30;8.97;94.84
68257;DHT22;55069;51.568;4.656;2024-02-21T04:05:56;8.91;95.04
68257;DHT22;55069;51.568;4.656;2024-02-21T04:08:22;8.92;95.18
68257;DHT22;55069;51.568;4.656;2024-02-21T04:10:48;8.94;95.04
68257;DHT22;55069;51.568;4.656;2024-02-21T04:13:14;8.96;94.87
68257;DHT22;55069;51.568;4.656;2024-02-21T04:15:39;8.91;95.08
68257;DHT22;55069;51.568;4.656;2024-02-21T04:18:05;8.90;94.80
68257;DHT22;55069;51.568;4.656;2024-02-21T04:20:30;8.91;94.78
68257;DHT22;55069;51.568;4.656;2024-02-21T04:22:56;8.91;94.75
68257;DHT22;55069;51.568;4.656;2024-02-21T04:25:22;8.92;94.86
68257;DHT22;55069;51.568;4.656;2024-02-21T04:27:48;8.85;95.08
68257;DHT22;55069;51.568;4.656;2024-02-21T04:30:13;8.80;95.10
68257;DHT22;55069;51.568;4.656;2024-02-21T04:32:39;8.79;95.17
68257;DHT22;55069;51.568;4.656;2024-02-21T04:35:06;8.77;95.23
68257;DHT22;55069;51.568;4.656;2024-02-21T04:37:32;8.80;95.18
68257;DHT22;55069;51.568;4.656;2024-02-21T04:39:58;8.76;94.97
68257;DHT22;55069;51.568;4.656;2024-02-21T04:42:23;8.80;95.16
68257;DHT22;55069;51.568;4.656;2024-02-21T04:44:49;8.73;95.26
68257;DHT22;55069;51.568;4.656;2024-02-21T04:47:14;8.73;95.24
68257;DHT22;55069;51.568;4.656;2024-02-21T04:49:40;8.76;95.21
68257;DHT22;55069;51.568;4.656;2024-02-21T04:52:05;8.71;95.34
68257;DHT22;55069;51.568;4.656;2024-02-21T04:54:31;8.69;95.35
68257;DHT22;55069;51.568;4.656;2024-02-21T04:56:56;8.67;95.42
68257;DHT22;55069;51.568;4.656;2024-02-21T04:59:22;8.64;95.69
68257;DHT22;55069;51.568;4.656;2024-02-21T05:01:47;8.63;95.58
68257;DHT22;55069;51.568;4.656;2024-02-21T05:04:13;8.62;95.67
68257;DHT22;55069;51.568;4.656;2024-02-21T05:06:41;8.60;95.71
68257;DHT22;55069;51.568;4.656;2024-02-21T05:09:08;8.59;95.83
68257;DHT22;55069;51.568;4.656;2024-02-21T05:11:35;8.59;95.77
68257;DHT22;55069;51.568;4.656;2024-02-21T05:14:00;8.56;95.88
68257;DHT22;55069;51.568;4.656;2024-02-21T05:16:26;8.57;95.97
68257;DHT22;55069;51.568;4.656;2024-02-21T05:18:51;8.62;95.80
68257;DHT22;55069;51.568;4.656;2024-02-21T05:21:17;8.63;95.58
68257;DHT22;55069;51.568;4.656;2024-02-21T05:23:43;8.63;95.65
68257;DHT22;55069;51.568;4.656;2024-02-21T05:26:09;8.64;95.58
68257;DHT22;55069;51.568;4.656;2024-02-21T05:28:34;8.60;95.54
68257;DHT22;55069;51.568;4.656;2024-02-21T05:31:00;8.64;95.57
68257;DHT22;55069;51.568;4.656;2024-02-21T05:33:26;8.64;95.35
68257;DHT22;55069;51.568;4.656;2024-02-21T05:35:52;8.67;95.23
68257;DHT22;55069;51.568;4.656;2024-02-21T05:38:18;8.71;95.26
68257;DHT22;55069;51.568;4.656;2024-02-21T05:40:46;8.73;95.20
68257;DHT22;55069;51.568;4.656;2024-02-21T05:43:12;8.73;95.04
68257;DHT22;55069;51.568;4.656;2024-02-21T05:45:37;8.73;95.38
68257;DHT22;55069;51.568;4.656;2024-02-21T05:48:04;8.70;95.30
68257;DHT22;55069;51.568;4.656;2024-02-21T05:50:29;8.69;95.29
68257;DHT22;55069;51.568;4.656;2024-02-21T05:52:55;8.71;95.12
68257;DHT22;55069;51.568;4.656;2024-02-21T05:55:21;8.69;95.31
68257;DHT22;55069;51.568;4.656;2024-02-21T05:57:47;8.67;95.30
68257;DHT22;55069;51.568;4.656;2024-02-21T06:00:13;8.69;95.20
68257;DHT22;55069;51.568;4.656;2024-02-21T06:02:39;8.66;95.26
68257;DHT22;55069;51.568;4.656;2024-02-21T06:05:06;8.66;95.28
68257;DHT22;55069;51.568;4.656;2024-02-21T06:07:33;8.64;95.26
68257;DHT22;55069;51.568;4.656;2024-02-21T06:10:00;8.63;95.35
68257;DHT22;55069;51.568;4.656;2024-02-21T06:12:25;8.66;95.35
68257;DHT22;55069;51.568;4.656;2024-02-21T06:14:51;8.67;95.23
68257;DHT22;55069;51.568;4.656;2024-02-21T06:17:17;8.66;95.07
68257;DHT22;55069;51.568;4.656;2024-02-21T06:19:43;8.69;94.94
68257;DHT22;55069;51.568;4.656;2024-02-21T06:22:09;8.70;95.00
68257;DHT22;55069;51.568;4.656;2024-02-21T06:24:35;8.70;94.97
68257;DHT22;55069;51.568;4.656;2024-02-21T06:27:03;8.66;95.42
68257;DHT22;55069;51.568;4.656;2024-02-21T06:29:28;8.66;95.10
68257;DHT22;55069;51.568;4.656;2024-02-21T06:31:54;8.59;95.54
68257;DHT22;55069;51.568;4.656;2024-02-21T06:34:19;8.60;95.50
68257;DHT22;55069;51.568;4.656;2024-02-21T06:36:45;8.66;95.15
68257;DHT22;55069;51.568;4.656;2024-02-21T06:39:10;8.64;95.21
68257;DHT22;55069;51.568;4.656;2024-02-21T06:41:37;8.66;95.26
68257;DHT22;55069;51.568;4.656;2024-02-21T06:44:02;8.70;94.98
68257;DHT22;55069;51.568;4.656;2024-02-21T06:46:29;8.69;94.97
68257;DHT22;55069;51.568;4.656;2024-02-21T06:48:55;8.71;94.99
68257;DHT22;55069;51.568;4.656;2024-02-21T06:51:24;8.70;95.03
68257;DHT22;55069;51.568;4.656;2024-02-21T06:53:50;8.67;94.96
68257;DHT22;55069;51.568;4.656;2024-02-21T06:56:15;8.59;95.31
68257;DHT22;55069;51.568;4.656;2024-02-21T06:58:41;8.59;95.04
68257;DHT22;55069;51.568;4.656;2024-02-21T07:01:07;8.56;95.03
68257;DHT22;55069;51.568;4.656;2024-02-21T07:03:33;8.50;95.26
68257;DHT22;55069;51.568;4.656;2024-02-21T07:05:58;8.50;95.21
68257;DHT22;55069;51.568;4.656;2024-02-21T07:08:24;8.52;95.20
68257;DHT22;55069;51.568;4.656;2024-02-21T07:10:49;8.48;95.27
68257;DHT22;55069;51.568;4.656;2024-02-21T07:13:15;8.45;95.40
68257;DHT22;55069;51.568;4.656;2024-02-21T07:15:41;8.46;95.45
68257;DHT22;55069;51.568;4.656;2024-02-21T07:18:07;8.48;95.60
68257;DHT22;55069;51.568;4.656;2024-02-21T07:20:32;8.41;95.71
68257;DHT22;55069;51.568;4.656;2024-02-21T07:23:03;8.35;95.85
68257;DHT22;55069;51.568;4.656;2024-02-21T07:25:28;8.36;95.83
68257;DHT22;55069;51.568;4.656;2024-02-21T07:27:54;8.39;95.86
68257;DHT22;55069;51.568;4.656;2024-02-21T07:30:19;8.38;95.79
68257;DHT22;55069;51.568;4.656;2024-02-21T07:32:45;8.39;95.81
68257;DHT22;55069;51.568;4.656;2024-02-21T07:35:10;8.42;95.68
68257;DHT22;55069;51.568;4.656;2024-02-21T07:37:37;8.45;95.59
68257;DHT22;55069;51.568;4.656;2024-02-21T07:40:12;8.42;95.38
68257;DHT22;55069;51.568;4.656;2024-02-21T07:42:37;8.45;95.43
68257;DHT22;55069;51.568;4.656;2024-02-21T07:45:03;8.42;95.56
68257;DHT22;55069;51.568;4.656;2024-02-21T07:47:29;8.41;95.48
68257;DHT22;55069;51.568;4.656;2024-02-21T07:49:54;8.45;95.36
68257;DHT22;55069;51.568;4.656;2024-02-21T07:52:20;8.42;95.40
68257;DHT22;55069;51.568;4.656;2024-02-21T07:54:45;8.48;95.40
68257;DHT22;55069;51.568;4.656;2024-02-21T07:57:11;8.48;95.41
68257;DHT22;55069;51.568;4.656;2024-02-21T07:59:36;8.46;95.45
68257;DHT22;55069;51.568;4.656;2024-02-21T08:02:02;8.48;95.37
68257;DHT22;55069;51.568;4.656;2024-02-21T08:04:28;8.53;95.29
68257;DHT22;55069;51.568;4.656;2024-02-21T08:06:54;8.54;95.21
68257;DHT22;55069;51.568;4.656;2024-02-21T08:09:22;8.53;95.25
68257;DHT22;55069;51.568;4.656;2024-02-21T08:11:48;8.62;95.07
68257;DHT22;55069;51.568;4.656;2024-02-21T08:14:14;8.63;95.04
68257;DHT22;55069;51.568;4.656;2024-02-21T08:16:42;8.63;94.91
68257;DHT22;55069;51.568;4.656;2024-02-21T08:19:07;8.67;94.97
68257;DHT22;55069;51.568;4.656;2024-02-21T08:21:33;8.69;94.95
68257;DHT22;55069;51.568;4.656;2024-02-21T08:23:58;8.73;94.70
68257;DHT22;55069;51.568;4.656;2024-02-21T08:26:24;8.76;94.47
68257;DHT22;55069;51.568;4.656;2024-02-21T08:28:52;8.85;94.26
68257;DHT22;55069;51.568;4.656;2024-02-21T08:31:21;8.90;94.06
68257;DHT22;55069;51.568;4.656;2024-02-21T08:33:48;8.94;93.82
68257;DHT22;55069;51.568;4.656;2024-02-21T08:36:19;8.94;93.90
68257;DHT22;55069;51.568;4.656;2024-02-21T08:38:45;9.03;93.69
68257;DHT22;55069;51.568;4.656;2024-02-21T08:41:11;9.07;93.53
68257;DHT22;55069;51.568;4.656;2024-02-21T08:43:37;9.01;93.34
68257;DHT22;55069;51.568;4.656;2024-02-21T08:46:04;9.07;93.38
68257;DHT22;55069;51.568;4.656;2024-02-21T08:48:30;9.11;93.18
68257;DHT22;55069;51.568;4.656;2024-02-21T08:50:55;9.10;93.06
68257;DHT22;55069;51.568;4.656;2024-02-21T08:53:21;9.12;93.07
68257;DHT22;55069;51.568;4.656;2024-02-21T08:55:49;9.21;93.22
68257;DHT22;55069;51.568;4.656;2024-02-21T08:58:15;9.28;92.84
68257;DHT22;55069;51.568;4.656;2024-02-21T09:00:40;9.29;92.50
68257;DHT22;55069;51.568;4.656;2024-02-21T09:03:06;9.32;92.53
68257;DHT22;55069;51.568;4.656;2024-02-21T09:05:31;9.40;92.51
68257;DHT22;55069;51.568;4.656;2024-02-21T09:07:57;9.48;92.25
68257;DHT22;55069;51.568;4.656;2024-02-21T09:10:22;9.52;92.15
68257;DHT22;55069;51.568;4.656;2024-02-21T09:12:48;9.52;92.08
68257;DHT22;55069;51.568;4.656;2024-02-21T09:15:13;9.60;92.05
68257;DHT22;55069;51.568;4.656;2024-02-21T09:17:39;9.60;91.77
68257;DHT22;55069;51.568;4.656;2024-02-21T09:20:05;9.59;91.81
68257;DHT22;55069;51.568;4.656;2024-02-21T09:22:32;9.66;92.04
68257;DHT22;55069;51.568;4.656;2024-02-21T09:25:00;9.66;91.77
68257;DHT22;55069;51.568;4.656;2024-02-21T09:27:26;9.66;92.08
68257;DHT22;55069;51.568;4.656;2024-02-21T09:29:51;9.66;92.16
68257;DHT22;55069;51.568;4.656;2024-02-21T09:32:18;9.70;91.83
68257;DHT22;55069;51.568;4.656;2024-02-21T09:34:44;9.76;91.95
68257;DHT22;55069;51.568;4.656;2024-02-21T09:37:10;9.84;91.72
68257;DHT22;55069;51.568;4.656;2024-02-21T09:39:36;9.87;91.73
68257;DHT22;55069;51.568;4.656;2024-02-21T09:42:11;9.90;91.79
68257;DHT22;55069;51.568;4.656;2024-02-21T09:44:37;9.89;91.49
68257;DHT22;55069;51.568;4.656;2024-02-21T09:49:47;10.11;91.43
68257;DHT22;55069;51.568;4.656;2024-02-21T09:52:14;10.05;91.14
68257;DHT22;55069;51.568;4.656;2024-02-21T09:54:40;10.03;91.23
68257;DHT22;55069;51.568;4.656;2024-02-21T09:57:10;10.01;90.98
68257;DHT22;55069;51.568;4.656;2024-02-21T09:59:36;10.04;90.83
68257;DHT22;55069;51.568;4.656;2024-02-21T10:02:02;10.01;90.93
68257;DHT22;55069;51.568;4.656;2024-02-21T10:04:29;10.07;90.93
68257;DHT22;55069;51.568;4.656;2024-02-21T10:06:55;10.10;90.87
68257;DHT22;55069;51.568;4.656;2024-02-21T10:09:24;10.08;90.27
68257;DHT22;55069;51.568;4.656;2024-02-21T10:11:53;10.14;90.17
68257;DHT22;55069;51.568;4.656;2024-02-21T10:14:19;10.13;89.89
68257;DHT22;55069;51.568;4.656;2024-02-21T10:16:47;10.22;90.29
68257;DHT22;55069;51.568;4.656;2024-02-21T10:19:19;10.28;89.68
68257;DHT22;55069;51.568;4.656;2024-02-21T10:22:05;10.34;89.41
68257;DHT22;55069;51.568;4.656;2024-02-21T10:24:36;10.35;89.73
68257;DHT22;55069;51.568;4.656;2024-02-21T10:27:08;10.31;89.58
68257;DHT22;55069;51.568;4.656;2024-02-21T10:29:34;10.38;89.17
68257;DHT22;55069;51.568;4.656;2024-02-21T10:32:08;10.31;89.61
68257;DHT22;55069;51.568;4.656;2024-02-21T10:34:34;10.22;88.98
68257;DHT22;55069;51.568;4.656;2024-02-21T10:37:01;10.18;89.67
68257;DHT22;55069;51.568;4.656;2024-02-21T10:39:27;10.21;89.41
68257;DHT22;55069;51.568;4.656;2024-02-21T10:41:53;10.15;89.02
68257;DHT22;55069;51.568;4.656;2024-02-21T10:44:21;10.17;89.34
68257;DHT22;55069;51.568;4.656;2024-02-21T10:46:47;10.20;89.09
68257;DHT22;55069;51.568;4.656;2024-02-21T10:49:22;10.17;89.28
68257;DHT22;55069;51.568;4.656;2024-02-21T10:51:55;10.15;89.32
68257;DHT22;55069;51.568;4.656;2024-02-21T10:54:29;10.17;89.70
68257;DHT22;55069;51.568;4.656;2024-02-21T10:56:56;10.37;88.96
68257;DHT22;55069;51.568;4.656;2024-02-21T10:59:23;10.61;88.50
68257;DHT22;55069;51.568;4.656;2024-02-21T11:01:51;10.79;87.31
68257;DHT22;55069;51.568;4.656;2024-02-21T11:04:18;10.95;86.97
68257;DHT22;55069;51.568;4.656;2024-02-21T11:06:44;10.97;86.59
68257;DHT22;55069;51.568;4.656;2024-02-21T11:09:10;10.95;86.25
68257;DHT22;55069;51.568;4.656;2024-02-21T11:11:38;10.96;86.50
68257;DHT22;55069;51.568;4.656;2024-02-21T11:14:25;10.84;86.62
68257;DHT22;55069;51.568;4.656;2024-02-21T11:16:51;10.95;86.37
68257;DHT22;55069;51.568;4.656;2024-02-21T11:19:27;11.01;85.44
68257;DHT22;55069;51.568;4.656;2024-02-21T11:21:55;11.09;85.31
68257;DHT22;55069;51.568;4.656;2024-02-21T11:24:40;11.04;84.94
68257;DHT22;55069;51.568;4.656;2024-02-21T11:29:44;11.17;85.15
68257;DHT22;55069;51.568;4.656;2024-02-21T11:32:11;11.13;84.48
68257;DHT22;55069;51.568;4.656;2024-02-21T11:34:37;11.23;84.81
68257;DHT22;55069;51.568;4.656;2024-02-21T11:37:13;11.24;84.48
68257;DHT22;55069;51.568;4.656;2024-02-21T11:39:40;11.24;84.74
68257;DHT22;55069;51.568;4.656;2024-02-21T11:42:07;11.24;84.74
68257;DHT22;55069;51.568;4.656;2024-02-21T11:44:34;11.28;85.04
68257;DHT22;55069;51.568;4.656;2024-02-21T11:47:00;11.18;85.08
68257;DHT22;55069;51.568;4.656;2024-02-21T11:49:28;11.11;85.25
68257;DHT22;55069;51.568;4.656;2024-02-21T11:51:58;11.14;85.54
68257;DHT22;55069;51.568;4.656;2024-02-21T11:54:24;11.11;85.24
68257;DHT22;55069;51.568;4.656;2024-02-21T11:56:49;11.07;85.42
68257;DHT22;55069;51.568;4.656;2024-02-21T11:59:15;11.04;85.57
68257;DHT22;55069;51.568;4.656;2024-02-21T12:01:40;11.06;85.88
68257;DHT22;55069;51.568;4.656;2024-02-21T12:04:06;10.97;85.86
68257;DHT22;55069;51.568;4.656;2024-02-21T12:06:32;10.86;85.54
68257;DHT22;55069;51.568;4.656;2024-02-21T12:08:59;10.92;85.60
68257;DHT22;55069;51.568;4.656;2024-02-21T12:11:25;10.86;85.74
68257;DHT22;55069;51.568;4.656;2024-02-21T12:14:11;10.82;85.91
68257;DHT22;55069;51.568;4.656;2024-02-21T12:16:44;10.76;86.36
68257;DHT22;55069;51.568;4.656;2024-02-21T12:19:14;10.88;86.10
68257;DHT22;55069;51.568;4.656;2024-02-21T12:21:43;10.90;85.82
68257;DHT22;55069;51.568;4.656;2024-02-21T12:24:25;10.90;85.78
68257;DHT22;55069;51.568;4.656;2024-02-21T12:26:54;10.96;86.05
68257;DHT22;55069;51.568;4.656;2024-02-21T12:29:23;10.92;86.35
68257;DHT22;55069;51.568;4.656;2024-02-21T12:31:50;10.88;86.03
68257;DHT22;55069;51.568;4.656;2024-02-21T12:34:16;10.89;86.52
68257;DHT22;55069;51.568;4.656;2024-02-21T12:36:42;10.88;86.25
68257;DHT22;55069;51.568;4.656;2024-02-21T12:39:09;10.82;86.37
68257;DHT22;55069;51.568;4.656;2024-02-21T12:41:35;10.77;86.48
68257;DHT22;55069;51.568;4.656;2024-02-21T12:44:04;10.72;86.78
68257;DHT22;55069;51.568;4.656;2024-02-21T12:46:35;10.71;86.99
68257;DHT22;55069;51.568;4.656;2024-02-21T12:49:01;10.72;86.78
68257;DHT22;55069;51.568;4.656;2024-02-21T12:51:27;10.68;87.02
68257;DHT22;55069;51.568;4.656;2024-02-21T12:53:52;10.76;86.39
68257;DHT22;55069;51.568;4.656;2024-02-21T12:56:18;10.72;87.25
68257;DHT22;55069;51.568;4.656;2024-02-21T12:58:43;10.72;86.56
68257;DHT22;55069;51.568;4.656;2024-02-21T13:01:10;10.79;86.58
68257;DHT22;55069;51.568;4.656;2024-02-21T13:03:35;10.79;85.69
68257;DHT22;55069;51.568;4.656;2024-02-21T13:06:01;10.84;86.02
68257;DHT22;55069;51.568;4.656;2024-02-21T13:08:27;10.89;85.90
68257;DHT22;55069;51.568;4.656;2024-02-21T13:10:52;10.90;85.72
68257;DHT22;55069;51.568;4.656;2024-02-21T13:13:18;10.93;85.81
68257;DHT22;55069;51.568;4.656;2024-02-21T13:15:44;10.88;84.94
68257;DHT22;55069;51.568;4.656;2024-02-21T13:18:09;10.89;85.42
68257;DHT22;55069;51.568;4.656;2024-02-21T13:20:36;10.84;85.87
68257;DHT22;55069;51.568;4.656;2024-02-21T13:23:01;10.86;85.19
68257;DHT22;55069;51.568;4.656;2024-02-21T13:25:27;10.79;85.36
68257;DHT22;55069;51.568;4.656;2024-02-21T13:27:53;10.90;85.04
68257;DHT22;55069;51.568;4.656;2024-02-21T13:30:18;10.89;84.93
68257;DHT22;55069;51.568;4.656;2024-02-21T13:32:44;10.93;85.04
68257;DHT22;55069;51.568;4.656;2024-02-21T13:35:13;10.89;85.41
68257;DHT22;55069;51.568;4.656;2024-02-21T13:37:39;10.84;84.92
68257;DHT22;55069;51.568;4.656;2024-02-21T13:40:05;10.90;85.51
68257;DHT22;55069;51.568;4.656;2024-02-21T13:42:31;10.96;85.48
68257;DHT22;55069;51.568;4.656;2024-02-21T13:44:56;10.97;84.98
68257;DHT22;55069;51.568;4.656;2024-02-21T13:47:22;10.95;84.92
68257;DHT22;55069;51.568;4.656;2024-02-21T13:49:48;10.90;85.93
68257;DHT22;55069;51.568;4.656;2024-02-21T13:52:13;10.79;85.88
68257;DHT22;55069;51.568;4.656;2024-02-21T13:54:40;10.79;86.63
68257;DHT22;55069;51.568;4.656;2024-02-21T13:57:05;10.73;87.13
68257;DHT22;55069;51.568;4.656;2024-02-21T13:59:31;10.71;87.31
68257;DHT22;55069;51.568;4.656;2024-02-21T14:01:58;10.63;87.89
68257;DHT22;55069;51.568;4.656;2024-02-21T14:04:24;10.58;87.76
68257;DHT22;55069;51.568;4.656;2024-02-21T14:06:49;10.58;88.56
68257;DHT22;55069;51.568;4.656;2024-02-21T14:09:15;10.61;89.16
68257;DHT22;55069;51.568;4.656;2024-02-21T14:11:40;10.53;89.28
68257;DHT22;55069;51.568;4.656;2024-02-21T14:14:07;10.44;89.65
68257;DHT22;55069;51.568;4.656;2024-02-21T14:16:33;10.40;90.44
68257;DHT22;55069;51.568;4.656;2024-02-21T14:18:59;10.32;90.88
68257;DHT22;55069;51.568;4.656;2024-02-21T14:21:24;10.31;91.77
68257;DHT22;55069;51.568;4.656;2024-02-21T14:23:51;10.18;91.83
68257;DHT22;55069;51.568;4.656;2024-02-21T14:26:18;10.15;92.62
68257;DHT22;55069;51.568;4.656;2024-02-21T14:28:43;10.00;92.70
68257;DHT22;55069;51.568;4.656;2024-02-21T14:31:09;9.91;93.43
68257;DHT22;55069;51.568;4.656;2024-02-21T14:33:35;9.93;93.75
68257;DHT22;55069;51.568;4.656;2024-02-21T14:36:01;9.89;93.52
68257;DHT22;55069;51.568;4.656;2024-02-21T14:38:28;9.82;94.21
68257;DHT22;55069;51.568;4.656;2024-02-21T14:40:53;9.76;94.31
68257;DHT22;55069;51.568;4.656;2024-02-21T14:43:19;9.77;94.77
68257;DHT22;55069;51.568;4.656;2024-02-21T14:45:47;9.70;94.72
68257;DHT22;55069;51.568;4.656;2024-02-21T14:48:13;9.73;95.34
68257;DHT22;55069;51.568;4.656;2024-02-21T14:50:39;9.70;95.26
68257;DHT22;55069;51.568;4.656;2024-02-21T14:53:05;9.66;95.43
68257;DHT22;55069;51.568;4.656;2024-02-21T14:55:33;9.65;95.59
68257;DHT22;55069;51.568;4.656;2024-02-21T14:57:58;9.67;95.70
68257;DHT22;55069;51.568;4.656;2024-02-21T15:00:24;9.69;95.63
68257;DHT22;55069;51.568;4.656;2024-02-21T15:02:58;9.63;95.59
68257;DHT22;55069;51.568;4.656;2024-02-21T15:05:23;9.63;95.68
68257;DHT22;55069;51.568;4.656;2024-02-21T15:07:50;9.59;95.93
68257;DHT22;55069;51.568;4.656;2024-02-21T15:10:16;9.60;96.33
68257;DHT22;55069;51.568;4.656;2024-02-21T15:12:45;9.56;96.09
68257;DHT22;55069;51.568;4.656;2024-02-21T15:15:10;9.52;96.25
68257;DHT22;55069;51.568;4.656;2024-02-21T15:17:36;9.48;96.42
68257;DHT22;55069;51.568;4.656;2024-02-21T15:20:02;9.49;96.62
68257;DHT22;55069;51.568;4.656;2024-02-21T15:22:30;9.55;96.70
68257;DHT22;55069;51.568;4.656;2024-02-21T15:24:55;9.50;96.69
68257;DHT22;55069;51.568;4.656;2024-02-21T15:27:21;9.50;96.77
68257;DHT22;55069;51.568;4.656;2024-02-21T15:29:46;9.43;96.78
68257;DHT22;55069;51.568;4.656;2024-02-21T15:32:12;9.45;96.98
68257;DHT22;55069;51.568;4.656;2024-02-21T15:34:37;9.36;97.09
68257;DHT22;55069;51.568;4.656;2024-02-21T15:37:03;9.35;97.21
68257;DHT22;55069;51.568;4.656;2024-02-21T15:39:29;9.31;97.31
68257;DHT22;55069;51.568;4.656;2024-02-21T15:41:55;9.29;97.50